Time;durP1;ratioP1;P1;durP2;ratioP2;P2;SDS_P1;SDS_P2;PMS_P1;PMS_P2;Temp;Humidity;BMP_temperature;BMP_pressure;BME280_temperature;BME280_humidity;BME280_pressure;Samples;Min_cycle;Max_cycle;Signal;HPM_P1;HPM_P2
2024/01/12 00:02:04;;;;;;;11.47;8.00;;;;;;;;;;5089089;28;20186;-52
2024/01/12 00:04:30;;;;;;;14.57;7.93;;;;;;;;;;5087811;28;20662;-54
2024/01/12 00:06:56;;;;;;;16.67;8.97;;;;;;;;;;5091104;28;20164;-61
2024/01/12 00:09:23;;;;;;;11.23;8.30;;;;;;;;;;5091825;28;20620;-57
2024/01/12 00:11:49;;;;;;;15.00;8.73;;;;;;;;;;5091753;28;20243;-56
2024/01/12 00:14:15;;;;;;;11.43;8.37;;;;;;;;;;5092323;28;20183;-57
2024/01/12 00:16:47;;;;;;;12.90;8.57;;;;;;;;;;5095353;28;20218;-57
2024/01/12 00:19:13;;;;;;;13.43;7.77;;;;;;;;;;5096870;28;20270;-58
2024/01/12 00:21:39;;;;;;;16.43;8.67;;;;;;;;;;5098101;28;20246;-58
2024/01/12 00:24:05;;;;;;;12.20;8.27;;;;;;;;;;5098416;28;20168;-56
2024/01/12 00:26:31;;;;;;;10.93;7.90;;;;;;;;;;5097569;28;20627;-58
2024/01/12 00:28:57;;;;;;;14.57;8.87;;;;;;;;;;5098071;28;20168;-58
2024/01/12 00:31:23;;;;;;;17.87;8.10;;;;;;;;;;5097615;28;20175;-57
2024/01/12 00:33:49;;;;;;;10.83;7.30;;;;;;;;;;5097101;28;20212;-56
2024/01/12 00:36:15;;;;;;;13.40;8.47;;;;;;;;;;5096834;28;20195;-54
2024/01/12 00:38:41;;;;;;;15.47;8.40;;;;;;;;;;5097528;28;20168;-54
2024/01/12 00:41:07;;;;;;;12.23;7.93;;;;;;;;;;5097089;28;20171;-55
2024/01/12 00:43:34;;;;;;;11.10;7.40;;;;;;;;;;5096566;28;20172;-51
2024/01/12 00:46:00;;;;;;;13.57;7.53;;;;;;;;;;5097148;28;20571;-54
2024/01/12 00:48:26;;;;;;;11.83;7.87;;;;;;;;;;5096684;28;20173;-55
2024/01/12 00:50:52;;;;;;;9.70;7.50;;;;;;;;;;5097111;28;20187;-56
2024/01/12 00:53:18;;;;;;;10.07;7.43;;;;;;;;;;5097058;28;20623;-57
2024/01/12 00:55:44;;;;;;;14.07;8.27;;;;;;;;;;5097171;28;20207;-51
2024/01/12 00:58:10;;;;;;;10.00;6.67;;;;;;;;;;5097522;28;20220;-57
2024/01/12 01:00:36;;;;;;;10.07;8.13;;;;;;;;;;5096565;28;20180;-55
2024/01/12 01:03:02;;;;;;;11.33;7.43;;;;;;;;;;5096204;28;20181;-56
2024/01/12 01:05:28;;;;;;;9.83;7.43;;;;;;;;;;5097572;28;20194;-64
2024/01/12 01:07:54;;;;;;;10.33;7.20;;;;;;;;;;5097681;28;20199;-64
2024/01/12 01:10:20;;;;;;;8.67;6.67;;;;;;;;;;5097843;28;20475;-64
2024/01/12 01:12:46;;;;;;;12.23;7.97;;;;;;;;;;5097270;28;20228;-56
2024/01/12 01:15:14;;;;;;;10.43;7.03;;;;;;;;;;5095142;28;20771;-53
2024/01/12 01:17:40;;;;;;;13.07;6.80;;;;;;;;;;5095630;28;20168;-55
2024/01/12 01:20:07;;;;;;;11.33;7.10;;;;;;;;;;5098601;28;20164;-56
2024/01/12 01:22:34;;;;;;;9.10;6.83;;;;;;;;;;5097414;28;20179;-58
2024/01/12 01:25:03;;;;;;;10.33;7.27;;;;;;;;;;5097784;28;20624;-57
2024/01/12 01:27:29;;;;;;;9.87;6.50;;;;;;;;;;5096665;28;20211;-57
2024/01/12 01:29:55;;;;;;;8.70;6.50;;;;;;;;;;5097132;28;20183;-55
2024/01/12 01:32:21;;;;;;;9.37;7.03;;;;;;;;;;5095719;28;20600;-57
2024/01/12 01:34:47;;;;;;;8.87;6.60;;;;;;;;;;5092828;28;20168;-56
2024/01/12 01:37:13;;;;;;;10.77;6.20;;;;;;;;;;5092187;28;20337;-57
2024/01/12 01:39:39;;;;;;;10.57;7.20;;;;;;;;;;5093008;28;20252;-58
2024/01/12 01:42:05;;;;;;;11.70;7.83;;;;;;;;;;5092250;28;20514;-56
2024/01/12 01:44:31;;;;;;;9.93;7.03;;;;;;;;;;5092603;28;20167;-55
2024/01/12 01:46:59;;;;;;;12.33;8.37;;;;;;;;;;5093143;28;20306;-58
2024/01/12 01:49:25;;;;;;;11.30;7.43;;;;;;;;;;5092114;28;20245;-57
2024/01/12 01:51:51;;;;;;;9.27;7.00;;;;;;;;;;5093342;28;20425;-56
2024/01/12 01:54:19;;;;;;;10.73;7.27;;;;;;;;;;5093335;28;20172;-57
2024/01/12 01:56:45;;;;;;;12.13;7.73;;;;;;;;;;5093410;28;20204;-57
2024/01/12 01:59:12;;;;;;;11.60;7.83;;;;;;;;;;5092102;28;20175;-57
2024/01/12 02:01:38;;;;;;;11.80;7.80;;;;;;;;;;5091115;28;20498;-58
2024/01/12 02:04:04;;;;;;;12.20;6.83;;;;;;;;;;5091476;28;20570;-58
2024/01/12 02:06:32;;;;;;;11.67;8.03;;;;;;;;;;5092625;28;20182;-56
2024/01/12 02:08:59;;;;;;;14.53;7.80;;;;;;;;;;5092095;28;20199;-55
2024/01/12 02:11:25;;;;;;;14.67;8.37;;;;;;;;;;5092623;28;20224;-54
2024/01/12 02:13:51;;;;;;;12.23;8.57;;;;;;;;;;5092650;28;20547;-57
2024/01/12 02:16:17;;;;;;;11.07;7.53;;;;;;;;;;5096393;28;20219;-55
2024/01/12 02:18:44;;;;;;;12.03;7.40;;;;;;;;;;5096941;28;20509;-58
2024/01/12 02:21:10;;;;;;;10.43;7.80;;;;;;;;;;5096706;28;20168;-56
2024/01/12 02:23:35;;;;;;;12.87;7.33;;;;;;;;;;5096105;28;20229;-55
2024/01/12 02:26:02;;;;;;;11.93;7.13;;;;;;;;;;5095918;28;20510;-57
2024/01/12 02:28:28;;;;;;;14.43;8.60;;;;;;;;;;5095059;28;20176;-56
2024/01/12 02:30:54;;;;;;;10.10;7.03;;;;;;;;;;5094954;28;20179;-56
2024/01/12 02:33:20;;;;;;;11.60;6.43;;;;;;;;;;5095923;28;20167;-58
2024/01/12 02:35:46;;;;;;;11.00;7.27;;;;;;;;;;5095341;28;20226;-57
2024/01/12 02:38:12;;;;;;;14.07;7.13;;;;;;;;;;5094442;28;20237;-58
2024/01/12 02:40:38;;;;;;;15.03;8.27;;;;;;;;;;5095131;28;20168;-58
2024/01/12 02:43:04;;;;;;;12.67;7.20;;;;;;;;;;5095781;28;20172;-58
2024/01/12 02:45:30;;;;;;;12.70;7.90;;;;;;;;;;5095973;28;20214;-55
2024/01/12 02:47:56;;;;;;;11.87;7.27;;;;;;;;;;5096874;28;20160;-56
2024/01/12 02:50:22;;;;;;;10.70;7.20;;;;;;;;;;5096431;28;20182;-54
2024/01/12 02:52:48;;;;;;;17.37;7.40;;;;;;;;;;5095607;28;20233;-55
2024/01/12 02:55:14;;;;;;;11.70;7.43;;;;;;;;;;5095073;28;20306;-58
2024/01/12 02:57:41;;;;;;;13.87;6.50;;;;;;;;;;5096158;28;20547;-57
2024/01/12 03:00:07;;;;;;;11.57;6.97;;;;;;;;;;5095807;28;20233;-58
2024/01/12 03:02:33;;;;;;;10.50;7.37;;;;;;;;;;5095131;28;20535;-53
2024/01/12 03:04:59;;;;;;;11.80;7.03;;;;;;;;;;5095355;28;20183;-53
2024/01/12 03:07:25;;;;;;;15.23;7.13;;;;;;;;;;5096702;28;20250;-55
2024/01/12 03:09:51;;;;;;;10.30;6.97;;;;;;;;;;5096216;28;20175;-56
2024/01/12 03:12:17;;;;;;;9.77;6.40;;;;;;;;;;5095797;28;20630;-54
2024/01/12 03:14:43;;;;;;;15.03;7.50;;;;;;;;;;5095721;28;20274;-57
2024/01/12 03:17:10;;;;;;;23.27;6.87;;;;;;;;;;5095761;28;20669;-57
2024/01/12 03:19:37;;;;;;;12.87;8.03;;;;;;;;;;5095543;28;20200;-58
2024/01/12 03:22:06;;;;;;;9.07;6.73;;;;;;;;;;5095733;28;20171;-58
2024/01/12 03:24:31;;;;;;;11.40;6.67;;;;;;;;;;5095054;28;20555;-57
2024/01/12 03:26:57;;;;;;;11.37;7.50;;;;;;;;;;5095224;28;20172;-58
2024/01/12 03:29:23;;;;;;;10.80;7.43;;;;;;;;;;5095536;28;20240;-55
2024/01/12 03:31:49;;;;;;;23.83;8.03;;;;;;;;;;5095532;28;20222;-58
2024/01/12 03:34:15;;;;;;;25.73;8.83;;;;;;;;;;5096203;28;20190;-57
2024/01/12 03:36:41;;;;;;;13.80;7.87;;;;;;;;;;5095665;28;20203;-57
2024/01/12 03:39:07;;;;;;;11.27;7.60;;;;;;;;;;5095258;28;20164;-57
2024/01/12 03:41:33;;;;;;;21.07;8.87;;;;;;;;;;5095171;28;20172;-58
2024/01/12 03:43:59;;;;;;;16.17;7.23;;;;;;;;;;5095392;28;20177;-58
2024/01/12 03:46:25;;;;;;;11.63;6.77;;;;;;;;;;5096028;28;20220;-58
2024/01/12 03:48:51;;;;;;;11.80;8.40;;;;;;;;;;5094263;28;20222;-57
2024/01/12 03:51:17;;;;;;;12.87;8.00;;;;;;;;;;5095153;28;20180;-58
2024/01/12 03:53:44;;;;;;;13.13;8.47;;;;;;;;;;5095361;28;20172;-58
2024/01/12 03:56:11;;;;;;;13.33;9.07;;;;;;;;;;5094431;28;20267;-58
2024/01/12 03:58:38;;;;;;;16.40;8.23;;;;;;;;;;5094657;28;20666;-57
2024/01/12 04:01:06;;;;;;;13.20;8.30;;;;;;;;;;5094065;28;20172;-55
2024/01/12 04:03:32;;;;;;;18.97;7.97;;;;;;;;;;5093932;28;20180;-56
2024/01/12 04:05:59;;;;;;;15.87;9.00;;;;;;;;;;5093518;28;20167;-58
2024/01/12 04:08:25;;;;;;;12.00;8.30;;;;;;;;;;5092491;28;20180;-53
2024/01/12 04:10:51;;;;;;;12.73;7.87;;;;;;;;;;5093331;28;20172;-53
2024/01/12 04:13:17;;;;;;;12.93;8.43;;;;;;;;;;5092398;28;20216;-57
2024/01/12 04:15:44;;;;;;;14.73;9.43;;;;;;;;;;5092139;28;20265;-57
2024/01/12 04:18:10;;;;;;;15.27;8.90;;;;;;;;;;5093691;28;20172;-58
2024/01/12 04:20:35;;;;;;;14.53;8.90;;;;;;;;;;5094929;28;20172;-55
2024/01/12 04:23:01;;;;;;;20.93;9.70;;;;;;;;;;5093676;28;20176;-58
2024/01/12 04:25:27;;;;;;;13.13;8.17;;;;;;;;;;5093701;28;20542;-56
2024/01/12 04:27:53;;;;;;;13.63;8.73;;;;;;;;;;5094630;28;20207;-57
2024/01/12 04:30:19;;;;;;;12.83;8.63;;;;;;;;;;5095163;28;20176;-55
2024/01/12 04:32:45;;;;;;;12.90;9.00;;;;;;;;;;5093119;28;20195;-55
2024/01/12 04:35:11;;;;;;;14.77;8.57;;;;;;;;;;5093311;28;22126;-57
2024/01/12 04:37:39;;;;;;;17.63;10.80;;;;;;;;;;5093452;28;20183;-57
2024/01/12 04:40:05;;;;;;;17.63;9.20;;;;;;;;;;5094450;28;20423;-58
2024/01/12 04:42:31;;;;;;;22.57;9.67;;;;;;;;;;5095069;28;20667;-56
2024/01/12 04:44:57;;;;;;;22.63;10.83;;;;;;;;;;5093449;28;20180;-56
2024/01/12 04:47:23;;;;;;;19.50;10.90;;;;;;;;;;5094279;28;20183;-56
2024/01/12 04:49:49;;;;;;;23.10;11.40;;;;;;;;;;5094380;28;20713;-58
2024/01/12 04:55:19;;;;;;;13.77;8.33;;;;;;;;;;5097610;28;20252;-55
2024/01/12 04:57:45;;;;;;;15.87;8.63;;;;;;;;;;5097084;28;20176;-55
2024/01/12 05:00:11;;;;;;;16.40;9.50;;;;;;;;;;5097668;28;20240;-57
2024/01/12 05:02:37;;;;;;;17.23;10.47;;;;;;;;;;5097187;28;20231;-56
2024/01/12 05:05:08;;;;;;;22.87;9.57;;;;;;;;;;5098017;28;20165;-56
2024/01/12 05:07:34;;;;;;;18.83;9.53;;;;;;;;;;5096786;28;20237;-55
2024/01/12 05:10:00;;;;;;;15.80;8.63;;;;;;;;;;5093586;28;20536;-58
2024/01/12 05:12:29;;;;;;;14.53;8.43;;;;;;;;;;5092666;28;20619;-55
2024/01/12 05:14:55;;;;;;;14.93;9.70;;;;;;;;;;5093862;28;20180;-58
2024/01/12 05:17:22;;;;;;;14.97;8.80;;;;;;;;;;5096379;28;20179;-52
2024/01/12 05:19:48;;;;;;;12.50;7.93;;;;;;;;;;5096974;28;20272;-58
2024/01/12 05:22:15;;;;;;;11.50;7.37;;;;;;;;;;5096506;28;20267;-58
2024/01/12 05:24:41;;;;;;;13.60;6.67;;;;;;;;;;5096504;28;20168;-56
2024/01/12 05:27:07;;;;;;;10.47;6.60;;;;;;;;;;5096765;28;20534;-54
2024/01/12 05:29:33;;;;;;;11.17;6.70;;;;;;;;;;5096511;28;20178;-57
2024/01/12 05:31:59;;;;;;;7.90;6.07;;;;;;;;;;5098232;28;20185;-58
2024/01/12 05:34:25;;;;;;;10.73;6.83;;;;;;;;;;5097425;28;20304;-57
2024/01/12 05:36:51;;;;;;;10.33;6.63;;;;;;;;;;5097211;28;20208;-58
2024/01/12 05:39:18;;;;;;;9.73;6.17;;;;;;;;;;5096459;28;20167;-58
2024/01/12 05:41:43;;;;;;;12.17;7.80;;;;;;;;;;5096638;28;20183;-58
2024/01/12 05:44:09;;;;;;;9.10;6.27;;;;;;;;;;5097752;28;20164;-54
2024/01/12 05:46:35;;;;;;;9.93;7.23;;;;;;;;;;5096840;28;20207;-57
2024/01/12 05:49:04;;;;;;;9.87;6.70;;;;;;;;;;5096002;28;20245;-53
2024/01/12 05:51:30;;;;;;;9.77;6.60;;;;;;;;;;5096108;28;20275;-56
2024/01/12 05:53:56;;;;;;;9.97;7.00;;;;;;;;;;5096422;28;20187;-54
2024/01/12 05:56:23;;;;;;;9.97;6.43;;;;;;;;;;5095952;28;20196;-56
2024/01/12 05:58:49;;;;;;;11.37;6.97;;;;;;;;;;5095648;28;20194;-57
2024/01/12 06:01:15;;;;;;;13.23;7.57;;;;;;;;;;5093825;28;20573;-57
2024/01/12 06:03:41;;;;;;;9.90;6.57;;;;;;;;;;5094515;28;20651;-57
2024/01/12 06:06:07;;;;;;;10.77;6.93;;;;;;;;;;5094717;28;20262;-58
2024/01/12 06:08:33;;;;;;;9.83;6.20;;;;;;;;;;5094306;28;20187;-56
2024/01/12 06:11:00;;;;;;;10.37;6.63;;;;;;;;;;5094808;28;20480;-57
2024/01/12 06:13:26;;;;;;;15.53;7.80;;;;;;;;;;5095686;28;20184;-55
2024/01/12 06:15:52;;;;;;;9.30;6.30;;;;;;;;;;5095409;28;20218;-58
2024/01/12 06:18:18;;;;;;;10.20;6.87;;;;;;;;;;5095662;28;20191;-57
2024/01/12 06:20:44;;;;;;;10.60;6.07;;;;;;;;;;5095356;28;20191;-57
2024/01/12 06:23:10;;;;;;;11.57;7.17;;;;;;;;;;5094570;28;20206;-57
2024/01/12 06:25:36;;;;;;;11.87;7.87;;;;;;;;;;5095793;28;20241;-58
2024/01/12 06:28:06;;;;;;;12.13;7.73;;;;;;;;;;5094804;28;20241;-57
2024/01/12 06:30:32;;;;;;;12.33;7.83;;;;;;;;;;5093920;28;20472;-55
2024/01/12 06:32:59;;;;;;;12.87;7.93;;;;;;;;;;5093979;28;20283;-54
2024/01/12 06:35:25;;;;;;;10.40;6.87;;;;;;;;;;5094851;28;20199;-57
2024/01/12 06:37:52;;;;;;;12.10;7.43;;;;;;;;;;5093803;28;20295;-56
2024/01/12 06:40:18;;;;;;;14.33;8.10;;;;;;;;;;5094246;28;20180;-58
2024/01/12 06:42:44;;;;;;;11.63;7.40;;;;;;;;;;5094299;28;20175;-57
2024/01/12 06:45:13;;;;;;;14.20;8.43;;;;;;;;;;5094134;28;20179;-57
2024/01/12 06:47:40;;;;;;;13.10;8.33;;;;;;;;;;5093445;28;20176;-57
2024/01/12 06:50:06;;;;;;;11.63;7.67;;;;;;;;;;5091192;28;20175;-58
2024/01/12 06:52:33;;;;;;;13.43;7.37;;;;;;;;;;5093203;28;20171;-55
2024/01/12 06:54:58;;;;;;;12.60;7.63;;;;;;;;;;5092074;28;20168;-55
2024/01/12 06:57:25;;;;;;;14.90;8.93;;;;;;;;;;5091275;28;20179;-55
2024/01/12 06:59:51;;;;;;;12.67;8.10;;;;;;;;;;5091285;28;20172;-56
2024/01/12 07:02:18;;;;;;;15.43;8.00;;;;;;;;;;5091376;28;20289;-55
2024/01/12 07:04:45;;;;;;;13.53;7.83;;;;;;;;;;5091706;28;20760;-54
2024/01/12 07:07:11;;;;;;;13.40;8.33;;;;;;;;;;5092485;28;20168;-57
2024/01/12 07:09:37;;;;;;;13.90;8.17;;;;;;;;;;5092712;28;20168;-57
2024/01/12 07:12:04;;;;;;;17.53;8.83;;;;;;;;;;5092220;28;20323;-57
2024/01/12 07:14:30;;;;;;;17.30;8.77;;;;;;;;;;5093307;28;20172;-56
2024/01/12 07:16:56;;;;;;;17.97;8.90;;;;;;;;;;5092549;28;20222;-55
2024/01/12 07:19:22;;;;;;;12.23;6.93;;;;;;;;;;5092353;28;20479;-53
2024/01/12 07:21:48;;;;;;;14.17;8.27;;;;;;;;;;5092154;28;20164;-55
2024/01/12 07:24:14;;;;;;;12.47;7.50;;;;;;;;;;5092321;28;20202;-57
2024/01/12 07:26:40;;;;;;;24.80;7.60;;;;;;;;;;5090604;28;20180;-53
2024/01/12 07:29:06;;;;;;;17.93;9.13;;;;;;;;;;5091321;28;20195;-55
2024/01/12 07:31:35;;;;;;;17.60;8.27;;;;;;;;;;5090797;28;20172;-57
2024/01/12 07:34:02;;;;;;;16.23;8.67;;;;;;;;;;5091870;28;20168;-57
2024/01/12 07:36:29;;;;;;;16.33;7.63;;;;;;;;;;5090465;28;20200;-58
2024/01/12 07:38:57;;;;;;;17.23;8.43;;;;;;;;;;5090043;28;20168;-57
2024/01/12 07:41:23;;;;;;;18.60;8.50;;;;;;;;;;5089904;28;20176;-53
2024/01/12 07:43:49;;;;;;;17.93;7.93;;;;;;;;;;5091149;28;20172;-59
2024/01/12 07:46:18;;;;;;;16.90;7.73;;;;;;;;;;5090768;28;20195;-58
2024/01/12 07:48:47;;;;;;;14.90;7.83;;;;;;;;;;5089886;28;20640;-56
2024/01/12 07:51:13;;;;;;;22.23;8.40;;;;;;;;;;5091496;28;20164;-58
2024/01/12 07:53:41;;;;;;;16.87;7.93;;;;;;;;;;5089899;28;20215;-57
2024/01/12 07:56:07;;;;;;;16.80;6.87;;;;;;;;;;5088408;28;20235;-63
2024/01/12 07:58:33;;;;;;;18.17;6.90;;;;;;;;;;5088405;28;20164;-55
2024/01/12 08:00:59;;;;;;;15.67;6.60;;;;;;;;;;5088129;28;20196;-58
2024/01/12 08:03:25;;;;;;;14.20;6.73;;;;;;;;;;5087527;28;20175;-57
2024/01/12 08:05:51;;;;;;;14.37;7.33;;;;;;;;;;5086788;28;20191;-57
2024/01/12 08:08:17;;;;;;;16.80;6.37;;;;;;;;;;5086339;28;20566;-57
2024/01/12 08:10:43;;;;;;;15.13;7.57;;;;;;;;;;5087755;28;20176;-55
2024/01/12 08:13:10;;;;;;;31.40;8.57;;;;;;;;;;5088934;28;20220;-58
2024/01/12 08:15:36;;;;;;;16.23;7.10;;;;;;;;;;5089433;28;20195;-53
2024/01/12 08:18:02;;;;;;;14.43;6.23;;;;;;;;;;5091262;28;20183;-55
2024/01/12 08:20:28;;;;;;;20.77;7.70;;;;;;;;;;5092038;28;20174;-56
2024/01/12 08:22:54;;;;;;;20.70;7.73;;;;;;;;;;5092912;28;20167;-58
2024/01/12 08:25:20;;;;;;;21.93;7.77;;;;;;;;;;5092082;28;20192;-57
2024/01/12 08:27:46;;;;;;;15.03;7.20;;;;;;;;;;5094207;28;20172;-57
2024/01/12 08:30:12;;;;;;;21.67;8.27;;;;;;;;;;5096070;28;20514;-55
2024/01/12 08:32:38;;;;;;;18.53;8.43;;;;;;;;;;5096781;28;20191;-56
2024/01/12 08:35:04;;;;;;;16.57;7.03;;;;;;;;;;5095413;28;20473;-53
2024/01/12 08:37:30;;;;;;;23.40;8.43;;;;;;;;;;5095525;28;20239;-56
2024/01/12 08:39:56;;;;;;;20.33;8.77;;;;;;;;;;5095262;28;20578;-58
2024/01/12 08:42:22;;;;;;;15.13;7.17;;;;;;;;;;5095516;28;20200;-58
2024/01/12 08:44:48;;;;;;;20.13;7.80;;;;;;;;;;5095152;28;20175;-58
2024/01/12 08:47:14;;;;;;;17.70;8.40;;;;;;;;;;5095634;28;20180;-54
2024/01/12 08:49:40;;;;;;;20.03;9.20;;;;;;;;;;5094469;28;20172;-56
2024/01/12 08:52:06;;;;;;;20.13;7.83;;;;;;;;;;5095381;28;20575;-57
2024/01/12 08:54:32;;;;;;;28.83;9.57;;;;;;;;;;5094331;28;20172;-58
2024/01/12 08:56:58;;;;;;;27.73;9.80;;;;;;;;;;5090972;28;20255;-53
2024/01/12 08:59:25;;;;;;;21.33;8.43;;;;;;;;;;5086897;28;20540;-51
2024/01/12 09:01:51;;;;;;;19.93;8.50;;;;;;;;;;5089679;28;20540;-58
2024/01/12 09:04:17;;;;;;;20.47;9.27;;;;;;;;;;5090298;28;20456;-55
2024/01/12 09:06:43;;;;;;;17.17;8.50;;;;;;;;;;5089387;28;20172;-57
2024/01/12 09:09:09;;;;;;;23.17;8.77;;;;;;;;;;5088681;28;20172;-56
2024/01/12 09:11:35;;;;;;;23.90;10.57;;;;;;;;;;5088764;28;20246;-50
2024/01/12 09:14:01;;;;;;;25.30;10.27;;;;;;;;;;5089114;28;20271;-52
2024/01/12 09:16:27;;;;;;;23.90;10.17;;;;;;;;;;5093954;28;20616;-57
2024/01/12 09:18:53;;;;;;;28.17;10.77;;;;;;;;;;5093712;28;20776;-53
2024/01/12 09:21:19;;;;;;;26.27;8.77;;;;;;;;;;5093930;28;20222;-57
2024/01/12 09:23:45;;;;;;;26.10;10.10;;;;;;;;;;5092648;28;20199;-55
2024/01/12 09:26:11;;;;;;;26.83;10.53;;;;;;;;;;5093418;28;20172;-55
2024/01/12 09:28:38;;;;;;;25.03;9.63;;;;;;;;;;5094857;28;20168;-54
2024/01/12 09:31:04;;;;;;;16.97;8.87;;;;;;;;;;5095082;28;20176;-56
2024/01/12 09:33:30;;;;;;;20.90;10.20;;;;;;;;;;5096274;28;20453;-57
2024/01/12 09:35:56;;;;;;;20.73;9.27;;;;;;;;;;5095619;28;20257;-55
2024/01/12 09:38:22;;;;;;;25.80;10.17;;;;;;;;;;5096568;28;20271;-53
2024/01/12 09:40:48;;;;;;;26.53;10.73;;;;;;;;;;5095062;28;20705;-57
2024/01/12 09:43:15;;;;;;;21.10;8.10;;;;;;;;;;5094133;28;20203;-57
2024/01/12 09:45:43;;;;;;;22.60;9.30;;;;;;;;;;5093207;28;20220;-58
2024/01/12 09:48:13;;;;;;;20.80;8.90;;;;;;;;;;5092679;28;20270;-57
2024/01/12 09:50:57;;;;;;;22.00;8.83;;;;;;;;;;5091208;28;20183;-54
2024/01/12 09:53:23;;;;;;;15.77;7.77;;;;;;;;;;5069722;28;20268;-54
2024/01/12 09:55:49;;;;;;;22.47;8.73;;;;;;;;;;5091539;28;20239;-55
2024/01/12 09:58:17;;;;;;;19.23;8.90;;;;;;;;;;5092329;28;20168;-57
2024/01/12 10:00:50;;;;;;;17.83;8.47;;;;;;;;;;5092818;28;20180;-54
2024/01/12 10:03:18;;;;;;;17.87;8.57;;;;;;;;;;5075309;28;20187;-56
2024/01/12 10:05:45;;;;;;;18.83;8.97;;;;;;;;;;5092154;28;20187;-55
2024/01/12 10:08:11;;;;;;;25.30;9.33;;;;;;;;;;5092182;28;20169;-55
2024/01/12 10:10:39;;;;;;;18.70;8.80;;;;;;;;;;5091759;28;20168;-56
2024/01/12 10:13:05;;;;;;;18.53;8.70;;;;;;;;;;5090951;28;20566;-57
2024/01/12 10:15:32;;;;;;;21.83;9.07;;;;;;;;;;5090891;28;20222;-57
2024/01/12 10:17:58;;;;;;;16.57;8.50;;;;;;;;;;5091331;28;20168;-53
2024/01/12 10:20:24;;;;;;;19.03;9.17;;;;;;;;;;5091145;28;20164;-55
2024/01/12 10:22:58;;;;;;;21.10;9.70;;;;;;;;;;5092226;28;20191;-54
2024/01/12 10:25:24;;;;;;;14.23;8.20;;;;;;;;;;5091684;28;20168;-57
2024/01/12 10:27:57;;;;;;;20.33;10.80;;;;;;;;;;5092045;28;20202;-54
2024/01/12 10:30:23;;;;;;;23.20;8.90;;;;;;;;;;5091126;28;20211;-54
2024/01/12 10:32:50;;;;;;;20.73;9.03;;;;;;;;;;5090283;28;20172;-55
2024/01/12 10:35:21;;;;;;;16.97;8.37;;;;;;;;;;5090924;28;20172;-56
2024/01/12 10:37:49;;;;;;;23.13;8.93;;;;;;;;;;5091907;28;20172;-53
2024/01/12 10:40:16;;;;;;;16.87;8.17;;;;;;;;;;5073287;28;20834;-55
2024/01/12 10:42:47;;;;;;;21.40;10.23;;;;;;;;;;5091015;28;20168;-56
2024/01/12 10:45:18;;;;;;;23.10;10.37;;;;;;;;;;5090064;28;20216;-57
2024/01/12 10:47:48;;;;;;;16.80;9.53;;;;;;;;;;5090084;28;20279;-57
2024/01/12 10:50:16;;;;;;;19.00;9.73;;;;;;;;;;5070987;28;20176;-58
2024/01/12 10:52:59;;;;;;;20.50;10.00;;;;;;;;;;5089720;28;20172;-54
2024/01/12 10:55:29;;;;;;;21.90;9.50;;;;;;;;;;5089842;28;20182;-54
2024/01/12 10:57:55;;;;;;;20.10;10.53;;;;;;;;;;5089861;28;20172;-54
2024/01/12 11:00:25;;;;;;;21.07;10.10;;;;;;;;;;5089026;28;20202;-56
2024/01/12 11:02:51;;;;;;;22.80;10.20;;;;;;;;;;5090975;28;20272;-58
2024/01/12 11:05:20;;;;;;;19.63;9.80;;;;;;;;;;5091274;28;20176;-54
2024/01/12 11:07:47;;;;;;;26.47;10.53;;;;;;;;;;5092483;28;20271;-51
2024/01/12 11:10:14;;;;;;;19.87;10.23;;;;;;;;;;5092763;28;20183;-63
2024/01/12 11:12:42;;;;;;;17.80;8.17;;;;;;;;;;5094697;28;20227;-63
2024/01/12 11:15:08;;;;;;;18.97;8.53;;;;;;;;;;5095424;28;20202;-63
2024/01/12 11:17:35;;;;;;;16.60;8.20;;;;;;;;;;5091700;28;20180;-56
2024/01/12 11:20:11;;;;;;;19.17;8.87;;;;;;;;;;5090235;28;20164;-56
2024/01/12 11:22:38;;;;;;;16.97;7.90;;;;;;;;;;5088073;28;20523;-54
2024/01/12 11:25:05;;;;;;;18.30;8.30;;;;;;;;;;5088102;28;20176;-55
2024/01/12 11:27:35;;;;;;;20.20;9.03;;;;;;;;;;5087382;28;20175;-54
2024/01/12 11:30:03;;;;;;;18.83;7.40;;;;;;;;;;5087453;28;20184;-55
2024/01/12 11:32:29;;;;;;;15.17;8.50;;;;;;;;;;5087986;28;20214;-55
2024/01/12 11:35:16;;;;;;;15.00;7.40;;;;;;;;;;5087624;28;20168;-56
2024/01/12 11:37:45;;;;;;;16.73;7.23;;;;;;;;;;5089815;28;20176;-58
2024/01/12 11:40:12;;;;;;;14.00;6.70;;;;;;;;;;5089938;28;20551;-57
2024/01/12 11:42:39;;;;;;;14.20;6.93;;;;;;;;;;5090622;28;20255;-56
2024/01/12 11:45:09;;;;;;;15.57;7.30;;;;;;;;;;5089738;28;20187;-58
2024/01/12 11:47:44;;;;;;;19.23;8.00;;;;;;;;;;5091813;28;20176;-54
2024/01/12 11:50:15;;;;;;;20.10;8.60;;;;;;;;;;5089679;28;20172;-57
2024/01/12 11:52:42;;;;;;;19.63;7.53;;;;;;;;;;5089587;28;20180;-56
2024/01/12 11:55:09;;;;;;;17.40;7.33;;;;;;;;;;5089909;28;20193;-54
2024/01/12 11:57:35;;;;;;;14.60;7.10;;;;;;;;;;5088967;28;20543;-53
2024/01/12 12:00:02;;;;;;;19.63;8.10;;;;;;;;;;5090151;28;20172;-55
2024/01/12 12:02:28;;;;;;;14.73;8.57;;;;;;;;;;5088951;28;20175;-56
2024/01/12 12:04:54;;;;;;;20.37;7.13;;;;;;;;;;5088777;28;20163;-55
2024/01/12 12:07:25;;;;;;;17.03;7.27;;;;;;;;;;5088522;28;20176;-58
2024/01/12 12:09:52;;;;;;;13.90;7.33;;;;;;;;;;5087721;28;20172;-56
2024/01/12 12:12:18;;;;;;;18.27;8.37;;;;;;;;;;5088109;28;20273;-53
2024/01/12 12:15:04;;;;;;;21.03;8.63;;;;;;;;;;5088594;28;20171;-54
2024/01/12 12:17:30;;;;;;;22.57;7.57;;;;;;;;;;5088356;28;20268;-54
2024/01/12 12:19:56;;;;;;;18.17;8.13;;;;;;;;;;5088615;28;20176;-54
2024/01/12 12:22:22;;;;;;;17.83;7.87;;;;;;;;;;5089915;28;20164;-54
2024/01/12 12:24:48;;;;;;;22.47;8.57;;;;;;;;;;5089850;28;20167;-57
2024/01/12 12:27:15;;;;;;;31.00;9.60;;;;;;;;;;5089962;28;20462;-59
2024/01/12 12:29:41;;;;;;;19.03;8.63;;;;;;;;;;5090091;28;20586;-54
2024/01/12 12:32:12;;;;;;;23.30;8.20;;;;;;;;;;5090158;28;20236;-56
2024/01/12 12:34:39;;;;;;;25.00;9.90;;;;;;;;;;5089760;28;20271;-56
2024/01/12 12:37:06;;;;;;;25.17;9.70;;;;;;;;;;5088845;28;20210;-57
2024/01/12 12:39:32;;;;;;;22.97;10.00;;;;;;;;;;5089990;28;20252;-55
2024/01/12 12:41:59;;;;;;;24.60;10.03;;;;;;;;;;5088436;28;20172;-57
2024/01/12 12:44:24;;;;;;;18.37;9.77;;;;;;;;;;5087974;28;20740;-55
2024/01/12 12:46:51;;;;;;;20.83;9.73;;;;;;;;;;5086985;28;20172;-56
2024/01/12 12:49:17;;;;;;;23.07;9.77;;;;;;;;;;5084673;28;20176;-58
2024/01/12 12:51:44;;;;;;;18.50;8.93;;;;;;;;;;5085772;28;20275;-58
2024/01/12 12:54:10;;;;;;;18.03;9.10;;;;;;;;;;5087348;28;20611;-57
2024/01/12 12:56:36;;;;;;;21.30;9.30;;;;;;;;;;5087490;28;20204;-57
2024/01/12 12:59:02;;;;;;;21.73;8.73;;;;;;;;;;5087548;28;20237;-58
2024/01/12 13:01:28;;;;;;;21.50;10.00;;;;;;;;;;5086756;28;20164;-55
2024/01/12 13:03:54;;;;;;;20.57;9.23;;;;;;;;;;5087663;28;20168;-59
2024/01/12 13:06:20;;;;;;;13.73;7.20;;;;;;;;;;5086902;28;20258;-55
2024/01/12 13:08:46;;;;;;;24.77;9.37;;;;;;;;;;5087648;28;20538;-58
2024/01/12 13:11:12;;;;;;;22.90;9.43;;;;;;;;;;5086586;28;20195;-62
2024/01/12 13:13:38;;;;;;;25.17;10.27;;;;;;;;;;5090540;28;20475;-61
2024/01/12 13:16:04;;;;;;;20.53;9.83;;;;;;;;;;5094849;28;20403;-61
2024/01/12 13:18:31;;;;;;;19.53;9.43;;;;;;;;;;5091705;28;20164;-55
2024/01/12 13:20:58;;;;;;;27.60;11.03;;;;;;;;;;5091296;28;20172;-56
2024/01/12 13:23:25;;;;;;;24.43;11.43;;;;;;;;;;5090268;28;20172;-57
2024/01/12 13:25:52;;;;;;;27.87;9.43;;;;;;;;;;5089343;28;20349;-56
2024/01/12 13:28:21;;;;;;;23.17;10.70;;;;;;;;;;5089394;28;20423;-56
2024/01/12 13:30:47;;;;;;;20.97;9.90;;;;;;;;;;5089872;28;20718;-57
2024/01/12 13:33:15;;;;;;;27.17;11.53;;;;;;;;;;5090624;28;20168;-58
2024/01/12 13:35:42;;;;;;;20.57;10.33;;;;;;;;;;5086536;28;20196;-58
2024/01/12 13:38:07;;;;;;;34.73;10.30;;;;;;;;;;5088293;28;20199;-55
2024/01/12 13:40:35;;;;;;;20.57;9.17;;;;;;;;;;5088200;28;20164;-57
2024/01/12 13:43:01;;;;;;;18.73;9.37;;;;;;;;;;5088521;28;20277;-56
2024/01/12 13:45:28;;;;;;;24.00;10.17;;;;;;;;;;5088208;28;20651;-58
2024/01/12 13:47:55;;;;;;;24.37;10.07;;;;;;;;;;5086813;28;20172;-56
2024/01/12 13:50:21;;;;;;;25.00;10.03;;;;;;;;;;5090717;28;20203;-56
2024/01/12 13:52:47;;;;;;;28.10;9.60;;;;;;;;;;5089654;28;20225;-56
2024/01/12 13:55:14;;;;;;;27.47;10.07;;;;;;;;;;5091543;28;20168;-56
2024/01/12 13:57:40;;;;;;;23.00;10.10;;;;;;;;;;5090880;28;20257;-58
2024/01/12 14:00:06;;;;;;;19.27;8.90;;;;;;;;;;5090255;28;20172;-57
2024/01/12 14:02:33;;;;;;;27.53;9.77;;;;;;;;;;5089791;28;20174;-58
2024/01/12 14:05:02;;;;;;;26.87;10.13;;;;;;;;;;5086034;28;20176;-55
2024/01/12 14:07:30;;;;;;;29.63;8.67;;;;;;;;;;5086334;28;20272;-58
2024/01/12 14:09:58;;;;;;;24.63;8.77;;;;;;;;;;5085298;28;20187;-55
2024/01/12 14:12:26;;;;;;;26.07;8.83;;;;;;;;;;5087168;28;20615;-57
2024/01/12 14:14:53;;;;;;;21.90;7.30;;;;;;;;;;5090013;28;20167;-57
2024/01/12 14:17:20;;;;;;;20.77;7.80;;;;;;;;;;5089960;28;20200;-55
2024/01/12 14:19:46;;;;;;;30.53;9.90;;;;;;;;;;5087636;28;20156;-58
2024/01/12 14:22:14;;;;;;;19.33;6.47;;;;;;;;;;5088029;28;20178;-58
2024/01/12 14:24:40;;;;;;;16.80;7.40;;;;;;;;;;5086650;28;20161;-56
2024/01/12 14:27:06;;;;;;;20.67;7.43;;;;;;;;;;5086493;28;20183;-58
2024/01/12 14:29:33;;;;;;;29.03;7.10;;;;;;;;;;5087472;28;20176;-57